Terminal Aerodrome Forecast
Issued by NWS Blacksburg, VA

Current Version | Previous Version | Graphics & Text | Print | Product List | Glossary On
Versions: 1 2 3 4 5 6 7 8 9 10 11 12 13 14 15 16 17 18 19 20 21 22 23 24 25 26 27 28 29 30
000
FTUS41 KRNK 231436 AAA
TAFBLF
TAF AMD
KBLF 231436Z 2315/2412 28007KT P6SM VCSH SCT040
     FM231900 28007KT P6SM VCTS BKN045CB
     FM232300 29004KT P6SM SCT050 BKN250
     FM240700 27006KT P6SM VCTS BKN040CB=

USA.gov is the U.S. government's official web portal to all federal, state and local government web resources and services.